Ana Sayfa
METAR-TAF:

METAR-TAF

Havaalanları :

Tan Son Nhat Uluslararası Havalimanı

Ho Chi Minh Kenti, Vietnam

Enlem: 10-49N, Boylam: 106-40E, yükseklik: 19 m

Güncel hava durumu gözlemi

Rapor saat 19:00 UTC de 11 dakika önce yapıldı.
Sakin rüzgar
Sıcaklık 23°C
Nem 89%
Basınç 1012 hPa
Görüş mesafesi: 8000 m
1700 ft yükseklikte az bulutlu
5000 ft yükseklikte parçalı bulutlu

METAR: VVTS 071900Z 00000KT 8000 FEW017 SCT050 23/21 Q1012 NOSIG

Saat: 02:11 (19:11 UTC)

Tahmin

Rapor saat 17:00 UTC de 2 saat ve 11 dakika önce yapıldı.
Ayın 07'si saat 18 UTC'den ayın 08'si saat 24 UTC'ye kadar geçerli Tahmin
Rüzgar kuzeydan 6 kt
Görüş mesafesi 10 km veya daha fazla
1700 ft yükseklikte parçalı bulutlu

TAF: VVTS 071700Z 0718/0824 36006KT 9999 SCT017

4.000'den fazla havaalanı için hava durumu gözlemleri ve tahminleri (METAR ve TAF raporları).

Kullanılabilir istasyonlar harita üzerinde sarı ve kırmızı noktalarla gösterilir.

İstasyonun adını görmek için fareyi noktanın üzerinde gezdirin.

Sonrasında hava gözlem ve tahminlerini görmek için tıklayın.

Haritayı değiştirmek için: yaklaştırmak için siyah artı işaretli yeşil düğmeye ve uzaklaştırmak için de eksi işaretli düğmeye hızla tıklayın; bitişik haritalar için yeşil okları kullanın.


METAR-TAF: